National Weather Service Raw Text Product

Displaying AFOS PIL: TAFALO Received: 2018-01-12 05:43 UTC


227 
FTUS43 KDMX 120543 AAA
TAFALO
TAF AMD
KALO 120543Z 1206/1306 33018G26KT 6SM BLSN SCT015
      TEMPO 1206/1208 BKN015
     FM120900 33014KT P6SM SKC
     FM130300 35009KT P6SM BKN090=